sensor_id;sensor_type;location;lat;lon;timestamp;temperature;humidity
2945;DHT22;1482;51.398;7.128;2023-12-04T00:00:01;1.30;3.60
2945;DHT22;1482;51.398;7.128;2023-12-04T00:02:28;1.30;2.50
2945;DHT22;1482;51.398;7.128;2023-12-04T00:04:53;1.30;1.00
2945;DHT22;1482;51.398;7.128;2023-12-04T00:07:19;1.30;3.60
2945;DHT22;1482;51.398;7.128;2023-12-04T00:09:44;1.30;1.00
2945;DHT22;1482;51.398;7.128;2023-12-04T00:12:10;1.20;1.00
2945;DHT22;1482;51.398;7.128;2023-12-04T00:14:35;1.30;1.00
2945;DHT22;1482;51.398;7.128;2023-12-04T00:17:01;1.30;1.00
2945;DHT22;1482;51.398;7.128;2023-12-04T00:19:26;1.30;1.00
2945;DHT22;1482;51.398;7.128;2023-12-04T00:21:52;1.30;1.00
2945;DHT22;1482;51.398;7.128;2023-12-04T00:24:17;1.30;1.00
2945;DHT22;1482;51.398;7.128;2023-12-04T00:26:43;1.40;1.00
2945;DHT22;1482;51.398;7.128;2023-12-04T00:29:08;1.50;1.00
2945;DHT22;1482;51.398;7.128;2023-12-04T00:31:34;1.50;1.00
2945;DHT22;1482;51.398;7.128;2023-12-04T00:33:59;1.50;1.00
2945;DHT22;1482;51.398;7.128;2023-12-04T00:36:25;1.60;1.00
2945;DHT22;1482;51.398;7.128;2023-12-04T00:38:50;1.60;1.00
2945;DHT22;1482;51.398;7.128;2023-12-04T00:41:16;1.60;1.00
2945;DHT22;1482;51.398;7.128;2023-12-04T00:43:41;1.50;1.00
2945;DHT22;1482;51.398;7.128;2023-12-04T00:46:07;1.50;1.00
2945;DHT22;1482;51.398;7.128;2023-12-04T00:48:32;1.50;1.00
2945;DHT22;1482;51.398;7.128;2023-12-04T00:50:58;1.50;1.00
2945;DHT22;1482;51.398;7.128;2023-12-04T00:53:24;1.50;1.00
2945;DHT22;1482;51.398;7.128;2023-12-04T00:55:49;1.60;1.00
2945;DHT22;1482;51.398;7.128;2023-12-04T00:58:15;1.70;1.00
2945;DHT22;1482;51.398;7.128;2023-12-04T01:00:40;1.80;1.00
2945;DHT22;1482;51.398;7.128;2023-12-04T01:03:06;1.70;1.00
2945;DHT22;1482;51.398;7.128;2023-12-04T01:05:31;1.70;1.00
2945;DHT22;1482;51.398;7.128;2023-12-04T01:07:57;1.80;1.00
2945;DHT22;1482;51.398;7.128;2023-12-04T01:10:22;1.90;1.00
2945;DHT22;1482;51.398;7.128;2023-12-04T01:12:48;1.90;1.00
2945;DHT22;1482;51.398;7.128;2023-12-04T01:15:14;1.90;1.00
2945;DHT22;1482;51.398;7.128;2023-12-04T01:17:39;1.80;1.00
2945;DHT22;1482;51.398;7.128;2023-12-04T01:20:05;1.70;1.00
2945;DHT22;1482;51.398;7.128;2023-12-04T01:22:31;1.70;1.00
2945;DHT22;1482;51.398;7.128;2023-12-04T01:24:57;1.70;1.00
2945;DHT22;1482;51.398;7.128;2023-12-04T01:27:22;1.60;1.00
2945;DHT22;1482;51.398;7.128;2023-12-04T01:29:48;1.60;1.00
2945;DHT22;1482;51.398;7.128;2023-12-04T01:32:13;1.50;1.00
2945;DHT22;1482;51.398;7.128;2023-12-04T01:34:39;1.50;1.00
2945;DHT22;1482;51.398;7.128;2023-12-04T01:37:05;1.50;1.00
2945;DHT22;1482;51.398;7.128;2023-12-04T01:39:30;1.50;1.00
2945;DHT22;1482;51.398;7.128;2023-12-04T01:41:56;1.50;1.00
2945;DHT22;1482;51.398;7.128;2023-12-04T01:44:21;1.50;1.00
2945;DHT22;1482;51.398;7.128;2023-12-04T01:46:47;1.50;1.00
2945;DHT22;1482;51.398;7.128;2023-12-04T01:49:13;1.50;1.00
2945;DHT22;1482;51.398;7.128;2023-12-04T01:51:39;1.50;1.00
2945;DHT22;1482;51.398;7.128;2023-12-04T01:54:06;1.50;1.00
2945;DHT22;1482;51.398;7.128;2023-12-04T01:56:34;1.50;1.00
2945;DHT22;1482;51.398;7.128;2023-12-04T01:58:59;1.50;1.00
2945;DHT22;1482;51.398;7.128;2023-12-04T02:01:26;1.40;1.00
2945;DHT22;1482;51.398;7.128;2023-12-04T02:03:53;1.50;1.00
2945;DHT22;1482;51.398;7.128;2023-12-04T02:06:19;1.40;1.00
2945;DHT22;1482;51.398;7.128;2023-12-04T02:08:46;1.50;1.00
2945;DHT22;1482;51.398;7.128;2023-12-04T02:11:12;1.50;1.00
2945;DHT22;1482;51.398;7.128;2023-12-04T02:13:38;1.50;1.00
2945;DHT22;1482;51.398;7.128;2023-12-04T02:16:05;1.50;1.00
2945;DHT22;1482;51.398;7.128;2023-12-04T02:18:34;1.50;1.00
2945;DHT22;1482;51.398;7.128;2023-12-04T02:21:03;1.40;1.00
2945;DHT22;1482;51.398;7.128;2023-12-04T02:23:28;1.50;1.00
2945;DHT22;1482;51.398;7.128;2023-12-04T02:26:09;1.50;1.00
2945;DHT22;1482;51.398;7.128;2023-12-04T02:28:37;1.50;1.00
2945;DHT22;1482;51.398;7.128;2023-12-04T02:31:05;1.50;1.00
2945;DHT22;1482;51.398;7.128;2023-12-04T02:33:32;1.50;1.00
2945;DHT22;1482;51.398;7.128;2023-12-04T02:35:58;1.50;1.00
2945;DHT22;1482;51.398;7.128;2023-12-04T02:38:24;1.50;1.00
2945;DHT22;1482;51.398;7.128;2023-12-04T02:40:50;1.50;1.00
2945;DHT22;1482;51.398;7.128;2023-12-04T02:43:16;1.50;1.00
2945;DHT22;1482;51.398;7.128;2023-12-04T02:45:42;1.50;1.00
2945;DHT22;1482;51.398;7.128;2023-12-04T02:48:07;1.50;1.00
2945;DHT22;1482;51.398;7.128;2023-12-04T02:50:33;1.50;1.00
2945;DHT22;1482;51.398;7.128;2023-12-04T02:52:58;1.40;1.00
2945;DHT22;1482;51.398;7.128;2023-12-04T02:55:24;1.40;1.00
2945;DHT22;1482;51.398;7.128;2023-12-04T02:57:49;1.40;1.00
2945;DHT22;1482;51.398;7.128;2023-12-04T03:00:15;1.50;1.00
2945;DHT22;1482;51.398;7.128;2023-12-04T03:02:41;1.50;1.00
2945;DHT22;1482;51.398;7.128;2023-12-04T03:05:06;1.50;1.00
2945;DHT22;1482;51.398;7.128;2023-12-04T03:07:32;1.50;1.00
2945;DHT22;1482;51.398;7.128;2023-12-04T03:09:57;1.50;1.00
2945;DHT22;1482;51.398;7.128;2023-12-04T03:12:23;1.50;1.00
2945;DHT22;1482;51.398;7.128;2023-12-04T03:14:48;1.50;1.00
2945;DHT22;1482;51.398;7.128;2023-12-04T03:17:14;1.50;1.00
2945;DHT22;1482;51.398;7.128;2023-12-04T03:19:40;1.60;1.00
2945;DHT22;1482;51.398;7.128;2023-12-04T03:22:05;1.60;1.00
2945;DHT22;1482;51.398;7.128;2023-12-04T03:24:31;1.60;1.00
2945;DHT22;1482;51.398;7.128;2023-12-04T03:26:56;1.60;1.00
2945;DHT22;1482;51.398;7.128;2023-12-04T03:29:22;1.60;1.00
2945;DHT22;1482;51.398;7.128;2023-12-04T03:31:48;1.60;1.00
2945;DHT22;1482;51.398;7.128;2023-12-04T03:34:13;1.70;1.00
2945;DHT22;1482;51.398;7.128;2023-12-04T03:36:39;1.70;1.00
2945;DHT22;1482;51.398;7.128;2023-12-04T03:39:04;1.70;1.00
2945;DHT22;1482;51.398;7.128;2023-12-04T03:41:30;1.70;1.00
2945;DHT22;1482;51.398;7.128;2023-12-04T03:43:55;1.70;1.00
2945;DHT22;1482;51.398;7.128;2023-12-04T03:46:21;1.70;1.00
2945;DHT22;1482;51.398;7.128;2023-12-04T03:48:46;1.80;1.00
2945;DHT22;1482;51.398;7.128;2023-12-04T03:51:12;1.80;1.00
2945;DHT22;1482;51.398;7.128;2023-12-04T03:53:37;1.80;1.00
2945;DHT22;1482;51.398;7.128;2023-12-04T03:56:03;1.80;1.00
2945;DHT22;1482;51.398;7.128;2023-12-04T03:58:29;1.90;1.00
2945;DHT22;1482;51.398;7.128;2023-12-04T04:00:54;1.80;1.00
2945;DHT22;1482;51.398;7.128;2023-12-04T04:03:20;1.80;1.00
2945;DHT22;1482;51.398;7.128;2023-12-04T04:05:46;1.80;1.00
2945;DHT22;1482;51.398;7.128;2023-12-04T04:08:11;1.80;1.00
2945;DHT22;1482;51.398;7.128;2023-12-04T04:10:37;1.80;1.00
2945;DHT22;1482;51.398;7.128;2023-12-04T04:13:02;1.80;1.00
2945;DHT22;1482;51.398;7.128;2023-12-04T04:15:28;1.80;1.00
2945;DHT22;1482;51.398;7.128;2023-12-04T04:17:53;1.80;1.00
2945;DHT22;1482;51.398;7.128;2023-12-04T04:20:19;1.80;1.00
2945;DHT22;1482;51.398;7.128;2023-12-04T04:22:48;1.80;1.00
2945;DHT22;1482;51.398;7.128;2023-12-04T04:25:14;1.70;1.00
2945;DHT22;1482;51.398;7.128;2023-12-04T04:27:39;1.70;1.00
2945;DHT22;1482;51.398;7.128;2023-12-04T04:30:05;1.70;1.00
2945;DHT22;1482;51.398;7.128;2023-12-04T04:32:31;1.70;1.00
2945;DHT22;1482;51.398;7.128;2023-12-04T04:34:57;1.70;1.00
2945;DHT22;1482;51.398;7.128;2023-12-04T04:37:22;1.70;1.00
2945;DHT22;1482;51.398;7.128;2023-12-04T04:39:48;1.70;1.00
2945;DHT22;1482;51.398;7.128;2023-12-04T04:42:14;1.80;1.00
2945;DHT22;1482;51.398;7.128;2023-12-04T04:44:40;1.80;1.00
2945;DHT22;1482;51.398;7.128;2023-12-04T04:47:05;1.80;1.00
2945;DHT22;1482;51.398;7.128;2023-12-04T04:49:31;1.80;1.00
2945;DHT22;1482;51.398;7.128;2023-12-04T04:51:57;1.90;1.00
2945;DHT22;1482;51.398;7.128;2023-12-04T04:54:22;1.90;1.00
2945;DHT22;1482;51.398;7.128;2023-12-04T04:56:48;1.90;1.00
2945;DHT22;1482;51.398;7.128;2023-12-04T04:59:13;1.80;1.00
2945;DHT22;1482;51.398;7.128;2023-12-04T05:01:39;1.80;1.00
2945;DHT22;1482;51.398;7.128;2023-12-04T05:04:04;1.80;1.00
2945;DHT22;1482;51.398;7.128;2023-12-04T05:06:30;1.80;1.00
2945;DHT22;1482;51.398;7.128;2023-12-04T05:08:56;1.80;1.00
2945;DHT22;1482;51.398;7.128;2023-12-04T05:11:22;1.80;1.00
2945;DHT22;1482;51.398;7.128;2023-12-04T05:13:47;1.90;1.00
2945;DHT22;1482;51.398;7.128;2023-12-04T05:16:13;1.90;1.00
2945;DHT22;1482;51.398;7.128;2023-12-04T05:18:39;1.90;1.00
2945;DHT22;1482;51.398;7.128;2023-12-04T05:21:13;1.90;1.00
2945;DHT22;1482;51.398;7.128;2023-12-04T05:23:39;1.80;1.00
2945;DHT22;1482;51.398;7.128;2023-12-04T05:26:06;1.80;1.00
2945;DHT22;1482;51.398;7.128;2023-12-04T05:28:32;1.80;1.00
2945;DHT22;1482;51.398;7.128;2023-12-04T05:30:57;1.80;1.00
2945;DHT22;1482;51.398;7.128;2023-12-04T05:33:23;1.80;1.00
2945;DHT22;1482;51.398;7.128;2023-12-04T05:35:49;1.80;1.00
2945;DHT22;1482;51.398;7.128;2023-12-04T05:38:16;1.80;1.00
2945;DHT22;1482;51.398;7.128;2023-12-04T05:40:42;1.80;1.00
2945;DHT22;1482;51.398;7.128;2023-12-04T05:43:07;1.80;1.00
2945;DHT22;1482;51.398;7.128;2023-12-04T05:45:33;1.80;1.00
2945;DHT22;1482;51.398;7.128;2023-12-04T05:47:58;1.90;1.00
2945;DHT22;1482;51.398;7.128;2023-12-04T05:50:24;1.80;1.00
2945;DHT22;1482;51.398;7.128;2023-12-04T05:52:50;1.80;1.00
2945;DHT22;1482;51.398;7.128;2023-12-04T05:55:16;1.90;1.00
2945;DHT22;1482;51.398;7.128;2023-12-04T05:57:41;1.80;1.00
2945;DHT22;1482;51.398;7.128;2023-12-04T06:00:08;1.80;1.00
2945;DHT22;1482;51.398;7.128;2023-12-04T06:02:44;1.80;1.00
2945;DHT22;1482;51.398;7.128;2023-12-04T06:05:10;1.80;1.00
2945;DHT22;1482;51.398;7.128;2023-12-04T06:07:36;1.80;1.00
2945;DHT22;1482;51.398;7.128;2023-12-04T06:10:03;1.80;1.00
2945;DHT22;1482;51.398;7.128;2023-12-04T06:12:31;1.90;1.00
2945;DHT22;1482;51.398;7.128;2023-12-04T06:14:57;1.90;1.00
2945;DHT22;1482;51.398;7.128;2023-12-04T06:17:26;1.70;1.00
2945;DHT22;1482;51.398;7.128;2023-12-04T06:19:53;1.80;1.00
2945;DHT22;1482;51.398;7.128;2023-12-04T06:22:19;1.80;1.00
2945;DHT22;1482;51.398;7.128;2023-12-04T06:24:47;1.80;1.00
2945;DHT22;1482;51.398;7.128;2023-12-04T06:27:15;1.80;1.00
2945;DHT22;1482;51.398;7.128;2023-12-04T06:29:41;1.80;1.00
2945;DHT22;1482;51.398;7.128;2023-12-04T06:32:07;1.80;1.00
2945;DHT22;1482;51.398;7.128;2023-12-04T06:34:34;1.80;1.00
2945;DHT22;1482;51.398;7.128;2023-12-04T06:37:02;1.80;1.00
2945;DHT22;1482;51.398;7.128;2023-12-04T06:39:32;1.80;1.00
2945;DHT22;1482;51.398;7.128;2023-12-04T06:41:59;1.80;1.00
2945;DHT22;1482;51.398;7.128;2023-12-04T06:44:25;1.70;1.00
2945;DHT22;1482;51.398;7.128;2023-12-04T06:46:52;1.70;1.00
2945;DHT22;1482;51.398;7.128;2023-12-04T06:49:18;1.60;1.00
2945;DHT22;1482;51.398;7.128;2023-12-04T06:51:44;1.60;1.00
2945;DHT22;1482;51.398;7.128;2023-12-04T06:54:09;1.60;1.00
2945;DHT22;1482;51.398;7.128;2023-12-04T06:56:37;1.60;1.00
2945;DHT22;1482;51.398;7.128;2023-12-04T06:59:03;1.60;1.00
2945;DHT22;1482;51.398;7.128;2023-12-04T07:01:29;1.60;1.00
2945;DHT22;1482;51.398;7.128;2023-12-04T07:03:55;1.60;1.00
2945;DHT22;1482;51.398;7.128;2023-12-04T07:06:20;1.70;1.00
2945;DHT22;1482;51.398;7.128;2023-12-04T07:08:46;1.70;1.00
2945;DHT22;1482;51.398;7.128;2023-12-04T07:11:11;1.70;1.00
2945;DHT22;1482;51.398;7.128;2023-12-04T07:13:41;1.70;1.00
2945;DHT22;1482;51.398;7.128;2023-12-04T07:16:07;1.70;1.00
2945;DHT22;1482;51.398;7.128;2023-12-04T07:18:33;1.70;1.00
2945;DHT22;1482;51.398;7.128;2023-12-04T07:20:58;1.70;1.00
2945;DHT22;1482;51.398;7.128;2023-12-04T07:23:24;1.80;1.00
2945;DHT22;1482;51.398;7.128;2023-12-04T07:25:49;1.70;1.00
2945;DHT22;1482;51.398;7.128;2023-12-04T07:28:17;1.80;1.00
2945;DHT22;1482;51.398;7.128;2023-12-04T07:30:42;1.80;1.00
2945;DHT22;1482;51.398;7.128;2023-12-04T07:33:08;1.80;1.00
2945;DHT22;1482;51.398;7.128;2023-12-04T07:35:34;1.90;1.00
2945;DHT22;1482;51.398;7.128;2023-12-04T07:37:59;2.00;1.00
2945;DHT22;1482;51.398;7.128;2023-12-04T07:40:25;1.90;1.00
2945;DHT22;1482;51.398;7.128;2023-12-04T07:42:53;2.00;1.00
2945;DHT22;1482;51.398;7.128;2023-12-04T07:45:19;2.00;1.00
2945;DHT22;1482;51.398;7.128;2023-12-04T07:47:45;2.00;1.00
2945;DHT22;1482;51.398;7.128;2023-12-04T07:50:11;2.00;1.00
2945;DHT22;1482;51.398;7.128;2023-12-04T07:52:36;2.00;1.00
2945;DHT22;1482;51.398;7.128;2023-12-04T07:55:02;2.00;1.00
2945;DHT22;1482;51.398;7.128;2023-12-04T07:57:27;2.10;1.00
2945;DHT22;1482;51.398;7.128;2023-12-04T07:59:53;2.10;1.00
2945;DHT22;1482;51.398;7.128;2023-12-04T08:02:18;2.10;1.00
2945;DHT22;1482;51.398;7.128;2023-12-04T08:04:44;2.10;1.00
2945;DHT22;1482;51.398;7.128;2023-12-04T08:07:10;2.20;1.00
2945;DHT22;1482;51.398;7.128;2023-12-04T08:09:36;2.20;1.00
2945;DHT22;1482;51.398;7.128;2023-12-04T08:12:01;2.20;1.00
2945;DHT22;1482;51.398;7.128;2023-12-04T08:14:27;2.30;1.00
2945;DHT22;1482;51.398;7.128;2023-12-04T08:16:53;2.40;1.00
2945;DHT22;1482;51.398;7.128;2023-12-04T08:19:19;2.40;1.00
2945;DHT22;1482;51.398;7.128;2023-12-04T08:21:44;2.40;1.00
2945;DHT22;1482;51.398;7.128;2023-12-04T08:24:10;2.40;1.00
2945;DHT22;1482;51.398;7.128;2023-12-04T08:26:36;2.40;1.00
2945;DHT22;1482;51.398;7.128;2023-12-04T08:29:01;2.50;1.00
2945;DHT22;1482;51.398;7.128;2023-12-04T08:31:28;2.50;1.00
2945;DHT22;1482;51.398;7.128;2023-12-04T08:33:53;2.50;1.00
2945;DHT22;1482;51.398;7.128;2023-12-04T08:36:19;2.50;1.00
2945;DHT22;1482;51.398;7.128;2023-12-04T08:38:45;2.60;1.00
2945;DHT22;1482;51.398;7.128;2023-12-04T08:41:11;2.70;1.00
2945;DHT22;1482;51.398;7.128;2023-12-04T08:43:36;2.80;1.00
2945;DHT22;1482;51.398;7.128;2023-12-04T08:46:02;2.80;1.00
2945;DHT22;1482;51.398;7.128;2023-12-04T08:48:28;2.80;1.00
2945;DHT22;1482;51.398;7.128;2023-12-04T08:50:53;2.80;1.00
2945;DHT22;1482;51.398;7.128;2023-12-04T08:53:19;2.80;1.00
2945;DHT22;1482;51.398;7.128;2023-12-04T08:55:44;2.80;1.00
2945;DHT22;1482;51.398;7.128;2023-12-04T08:58:10;2.80;1.00
2945;DHT22;1482;51.398;7.128;2023-12-04T09:00:36;2.90;1.00
2945;DHT22;1482;51.398;7.128;2023-12-04T09:03:03;2.90;1.00
2945;DHT22;1482;51.398;7.128;2023-12-04T09:05:28;2.90;1.00
2945;DHT22;1482;51.398;7.128;2023-12-04T09:07:54;3.00;1.00
2945;DHT22;1482;51.398;7.128;2023-12-04T09:10:19;3.10;1.00
2945;DHT22;1482;51.398;7.128;2023-12-04T09:12:45;3.10;1.00
2945;DHT22;1482;51.398;7.128;2023-12-04T09:15:11;3.20;1.00
2945;DHT22;1482;51.398;7.128;2023-12-04T09:17:37;3.20;1.00
2945;DHT22;1482;51.398;7.128;2023-12-04T09:20:03;3.20;1.00
2945;DHT22;1482;51.398;7.128;2023-12-04T09:22:31;3.30;1.00
2945;DHT22;1482;51.398;7.128;2023-12-04T09:24:56;3.20;1.00
2945;DHT22;1482;51.398;7.128;2023-12-04T09:27:22;3.20;1.00
2945;DHT22;1482;51.398;7.128;2023-12-04T09:29:48;3.20;1.00
2945;DHT22;1482;51.398;7.128;2023-12-04T09:32:13;3.20;1.00
2945;DHT22;1482;51.398;7.128;2023-12-04T09:34:39;3.20;1.00
2945;DHT22;1482;51.398;7.128;2023-12-04T09:37:05;3.30;1.00
2945;DHT22;1482;51.398;7.128;2023-12-04T09:39:30;3.40;1.00
2945;DHT22;1482;51.398;7.128;2023-12-04T09:41:56;3.40;1.00
2945;DHT22;1482;51.398;7.128;2023-12-04T09:44:24;3.40;1.00
2945;DHT22;1482;51.398;7.128;2023-12-04T09:46:50;3.50;1.00
2945;DHT22;1482;51.398;7.128;2023-12-04T09:49:17;3.50;1.00
2945;DHT22;1482;51.398;7.128;2023-12-04T09:51:44;3.50;1.00
2945;DHT22;1482;51.398;7.128;2023-12-04T09:54:09;3.60;1.00
2945;DHT22;1482;51.398;7.128;2023-12-04T09:56:36;3.50;1.00
2945;DHT22;1482;51.398;7.128;2023-12-04T09:59:05;3.50;1.00
2945;DHT22;1482;51.398;7.128;2023-12-04T10:01:32;3.50;1.00
2945;DHT22;1482;51.398;7.128;2023-12-04T10:03:58;3.40;1.00
2945;DHT22;1482;51.398;7.128;2023-12-04T10:06:28;3.40;1.00
2945;DHT22;1482;51.398;7.128;2023-12-04T10:08:56;3.40;1.00
2945;DHT22;1482;51.398;7.128;2023-12-04T10:11:26;3.40;1.00
2945;DHT22;1482;51.398;7.128;2023-12-04T10:13:52;3.30;1.00
2945;DHT22;1482;51.398;7.128;2023-12-04T10:16:35;3.30;1.00
2945;DHT22;1482;51.398;7.128;2023-12-04T10:19:26;3.30;1.00
2945;DHT22;1482;51.398;7.128;2023-12-04T10:21:54;3.30;1.00
2945;DHT22;1482;51.398;7.128;2023-12-04T10:26:56;3.30;1.00
2945;DHT22;1482;51.398;7.128;2023-12-04T10:29:22;3.30;1.00
2945;DHT22;1482;51.398;7.128;2023-12-04T10:31:50;3.30;1.00
2945;DHT22;1482;51.398;7.128;2023-12-04T10:34:16;3.30;1.00
2945;DHT22;1482;51.398;7.128;2023-12-04T10:36:42;3.20;1.00
2945;DHT22;1482;51.398;7.128;2023-12-04T10:39:07;3.30;1.00
2945;DHT22;1482;51.398;7.128;2023-12-04T10:41:33;3.20;1.00
2945;DHT22;1482;51.398;7.128;2023-12-04T10:43:59;3.20;1.00
2945;DHT22;1482;51.398;7.128;2023-12-04T10:46:27;3.20;1.00
2945;DHT22;1482;51.398;7.128;2023-12-04T10:48:53;3.10;1.00
2945;DHT22;1482;51.398;7.128;2023-12-04T10:51:19;3.10;1.00
2945;DHT22;1482;51.398;7.128;2023-12-04T10:53:47;3.10;1.00
2945;DHT22;1482;51.398;7.128;2023-12-04T10:56:36;3.10;1.00
2945;DHT22;1482;51.398;7.128;2023-12-04T10:59:03;3.20;1.00
2945;DHT22;1482;51.398;7.128;2023-12-04T11:01:31;3.00;1.00
2945;DHT22;1482;51.398;7.128;2023-12-04T11:03:59;3.00;1.00
2945;DHT22;1482;51.398;7.128;2023-12-04T11:06:29;3.00;1.00
2945;DHT22;1482;51.398;7.128;2023-12-04T11:08:56;3.00;1.00
2945;DHT22;1482;51.398;7.128;2023-12-04T11:11:35;3.00;1.00
2945;DHT22;1482;51.398;7.128;2023-12-04T11:14:02;2.90;1.00
2945;DHT22;1482;51.398;7.128;2023-12-04T11:16:51;2.80;1.00
2945;DHT22;1482;51.398;7.128;2023-12-04T11:19:48;2.80;1.00
2945;DHT22;1482;51.398;7.128;2023-12-04T11:22:15;2.80;1.00
2945;DHT22;1482;51.398;7.128;2023-12-04T11:24:46;2.70;1.00
2945;DHT22;1482;51.398;7.128;2023-12-04T11:27:13;2.70;1.00
2945;DHT22;1482;51.398;7.128;2023-12-04T11:29:39;2.70;1.00
2945;DHT22;1482;51.398;7.128;2023-12-04T11:32:06;2.60;1.00
2945;DHT22;1482;51.398;7.128;2023-12-04T11:34:32;2.60;1.00
2945;DHT22;1482;51.398;7.128;2023-12-04T11:36:58;2.70;1.00
2945;DHT22;1482;51.398;7.128;2023-12-04T11:39:25;2.60;1.00
2945;DHT22;1482;51.398;7.128;2023-12-04T11:41:51;2.70;1.00
2945;DHT22;1482;51.398;7.128;2023-12-04T11:44:17;2.80;1.00
2945;DHT22;1482;51.398;7.128;2023-12-04T11:47:05;2.80;1.00
2945;DHT22;1482;51.398;7.128;2023-12-04T11:49:31;2.80;1.00
2945;DHT22;1482;51.398;7.128;2023-12-04T11:52:01;2.80;1.00
2945;DHT22;1482;51.398;7.128;2023-12-04T11:55:07;2.90;1.00
2945;DHT22;1482;51.398;7.128;2023-12-04T11:57:40;2.90;1.00
2945;DHT22;1482;51.398;7.128;2023-12-04T12:05:14;3.10;1.00
2945;DHT22;1482;51.398;7.128;2023-12-04T12:07:39;3.10;1.00
2945;DHT22;1482;51.398;7.128;2023-12-04T12:10:05;3.10;1.00
2945;DHT22;1482;51.398;7.128;2023-12-04T12:12:31;3.00;1.00
2945;DHT22;1482;51.398;7.128;2023-12-04T12:15:01;2.90;1.00
2945;DHT22;1482;51.398;7.128;2023-12-04T12:17:26;2.80;1.00
2945;DHT22;1482;51.398;7.128;2023-12-04T12:19:53;2.80;1.00
2945;DHT22;1482;51.398;7.128;2023-12-04T12:22:19;2.80;1.00
2945;DHT22;1482;51.398;7.128;2023-12-04T12:24:45;2.90;1.00
2945;DHT22;1482;51.398;7.128;2023-12-04T12:27:10;3.00;1.00
2945;DHT22;1482;51.398;7.128;2023-12-04T12:29:36;2.90;1.00
2945;DHT22;1482;51.398;7.128;2023-12-04T12:32:01;2.90;1.00
2945;DHT22;1482;51.398;7.128;2023-12-04T12:34:28;2.90;1.00
2945;DHT22;1482;51.398;7.128;2023-12-04T12:36:54;2.90;1.00
2945;DHT22;1482;51.398;7.128;2023-12-04T12:39:19;2.90;1.00
2945;DHT22;1482;51.398;7.128;2023-12-04T12:41:51;2.90;1.00
2945;DHT22;1482;51.398;7.128;2023-12-04T12:44:17;2.90;1.00
2945;DHT22;1482;51.398;7.128;2023-12-04T12:46:47;3.00;1.00
2945;DHT22;1482;51.398;7.128;2023-12-04T12:49:16;2.90;1.00
2945;DHT22;1482;51.398;7.128;2023-12-04T12:51:42;2.80;1.00
2945;DHT22;1482;51.398;7.128;2023-12-04T12:54:08;2.80;1.00
2945;DHT22;1482;51.398;7.128;2023-12-04T12:56:33;2.80;1.00
2945;DHT22;1482;51.398;7.128;2023-12-04T12:58:59;2.70;1.00
2945;DHT22;1482;51.398;7.128;2023-12-04T13:01:30;2.60;1.00
2945;DHT22;1482;51.398;7.128;2023-12-04T13:03:56;2.70;1.00
2945;DHT22;1482;51.398;7.128;2023-12-04T13:06:22;2.70;1.00
2945;DHT22;1482;51.398;7.128;2023-12-04T13:08:48;2.80;1.00
2945;DHT22;1482;51.398;7.128;2023-12-04T13:11:13;2.90;1.00
2945;DHT22;1482;51.398;7.128;2023-12-04T13:13:39;2.80;1.00
2945;DHT22;1482;51.398;7.128;2023-12-04T13:16:05;2.80;4.10
2945;DHT22;1482;51.398;7.128;2023-12-04T13:18:31;2.90;6.10
2945;DHT22;1482;51.398;7.128;2023-12-04T13:21:00;2.80;7.80
2945;DHT22;1482;51.398;7.128;2023-12-04T13:23:26;2.80;8.50
2945;DHT22;1482;51.398;7.128;2023-12-04T13:25:52;2.80;10.80
2945;DHT22;1482;51.398;7.128;2023-12-04T13:28:20;2.70;14.90
2945;DHT22;1482;51.398;7.128;2023-12-04T13:30:45;2.70;17.50
2945;DHT22;1482;51.398;7.128;2023-12-04T13:33:11;2.70;18.70
2945;DHT22;1482;51.398;7.128;2023-12-04T13:35:36;2.80;24.20
2945;DHT22;1482;51.398;7.128;2023-12-04T13:38:02;2.80;21.00
2945;DHT22;1482;51.398;7.128;2023-12-04T13:40:28;2.70;26.10
2945;DHT22;1482;51.398;7.128;2023-12-04T13:42:57;2.80;34.30
2945;DHT22;1482;51.398;7.128;2023-12-04T13:45:41;2.90;34.70
2945;DHT22;1482;51.398;7.128;2023-12-04T13:48:07;3.00;33.90
2945;DHT22;1482;51.398;7.128;2023-12-04T13:50:33;3.10;29.70
2945;DHT22;1482;51.398;7.128;2023-12-04T13:52:58;3.20;30.70
2945;DHT22;1482;51.398;7.128;2023-12-04T13:55:24;3.00;27.00
2945;DHT22;1482;51.398;7.128;2023-12-04T13:58:12;3.00;35.30
2945;DHT22;1482;51.398;7.128;2023-12-04T14:00:58;3.00;38.20
2945;DHT22;1482;51.398;7.128;2023-12-04T14:03:23;2.90;37.70
2945;DHT22;1482;51.398;7.128;2023-12-04T14:05:49;2.90;43.10
2945;DHT22;1482;51.398;7.128;2023-12-04T14:08:15;3.00;44.60
2945;DHT22;1482;51.398;7.128;2023-12-04T14:10:40;3.00;42.50
2945;DHT22;1482;51.398;7.128;2023-12-04T14:13:06;3.00;42.20
2945;DHT22;1482;51.398;7.128;2023-12-04T14:15:31;2.90;43.60
2945;DHT22;1482;51.398;7.128;2023-12-04T14:17:57;2.90;41.30
2945;DHT22;1482;51.398;7.128;2023-12-04T14:20:22;3.00;46.80
2945;DHT22;1482;51.398;7.128;2023-12-04T14:22:50;3.00;45.20
2945;DHT22;1482;51.398;7.128;2023-12-04T14:25:16;3.10;41.10
2945;DHT22;1482;51.398;7.128;2023-12-04T14:27:41;3.00;39.80
2945;DHT22;1482;51.398;7.128;2023-12-04T14:30:09;3.00;42.00
2945;DHT22;1482;51.398;7.128;2023-12-04T14:32:35;3.10;37.60
2945;DHT22;1482;51.398;7.128;2023-12-04T14:35:02;3.20;40.80
2945;DHT22;1482;51.398;7.128;2023-12-04T14:37:28;3.10;39.80
2945;DHT22;1482;51.398;7.128;2023-12-04T14:39:54;3.10;41.70
2945;DHT22;1482;51.398;7.128;2023-12-04T14:42:19;3.10;43.00
2945;DHT22;1482;51.398;7.128;2023-12-04T14:44:45;3.10;46.30
2945;DHT22;1482;51.398;7.128;2023-12-04T14:47:10;3.10;45.30
2945;DHT22;1482;51.398;7.128;2023-12-04T14:49:37;3.10;49.20
2945;DHT22;1482;51.398;7.128;2023-12-04T14:52:03;3.00;58.10
2945;DHT22;1482;51.398;7.128;2023-12-04T14:54:31;3.00;73.40
2945;DHT22;1482;51.398;7.128;2023-12-04T14:57:20;2.90;90.80
2945;DHT22;1482;51.398;7.128;2023-12-04T15:00:11;2.80;99.70
2945;DHT22;1482;51.398;7.128;2023-12-04T15:02:55;2.70;99.90
2945;DHT22;1482;51.398;7.128;2023-12-04T15:05:30;2.70;99.90
2945;DHT22;1482;51.398;7.128;2023-12-04T15:08:31;2.70;99.90
2945;DHT22;1482;51.398;7.128;2023-12-04T15:11:02;2.60;99.90
2945;DHT22;1482;51.398;7.128;2023-12-04T15:13:57;2.60;99.90
2945;DHT22;1482;51.398;7.128;2023-12-04T15:16:41;2.50;99.90
2945;DHT22;1482;51.398;7.128;2023-12-04T15:19:13;2.50;99.90
2945;DHT22;1482;51.398;7.128;2023-12-04T15:21:54;2.50;99.90
2945;DHT22;1482;51.398;7.128;2023-12-04T15:24:20;2.50;99.90
2945;DHT22;1482;51.398;7.128;2023-12-04T15:26:45;2.50;99.90
2945;DHT22;1482;51.398;7.128;2023-12-04T15:29:11;2.50;99.90
2945;DHT22;1482;51.398;7.128;2023-12-04T15:31:37;2.50;99.90
2945;DHT22;1482;51.398;7.128;2023-12-04T15:34:02;2.60;99.90
2945;DHT22;1482;51.398;7.128;2023-12-04T15:36:29;2.60;99.90
2945;DHT22;1482;51.398;7.128;2023-12-04T15:38:54;2.70;99.90
2945;DHT22;1482;51.398;7.128;2023-12-04T15:41:20;2.80;99.90
2945;DHT22;1482;51.398;7.128;2023-12-04T15:43:46;2.80;98.90
2945;DHT22;1482;51.398;7.128;2023-12-04T15:46:14;2.80;95.40
2945;DHT22;1482;51.398;7.128;2023-12-04T15:48:40;2.70;91.70
2945;DHT22;1482;51.398;7.128;2023-12-04T15:51:05;2.70;93.30
2945;DHT22;1482;51.398;7.128;2023-12-04T15:53:31;2.70;91.70
2945;DHT22;1482;51.398;7.128;2023-12-04T15:55:56;2.70;86.40
2945;DHT22;1482;51.398;7.128;2023-12-04T15:58:22;2.80;86.80
2945;DHT22;1482;51.398;7.128;2023-12-04T16:00:48;2.80;85.70
2945;DHT22;1482;51.398;7.128;2023-12-04T16:03:14;2.90;84.70
2945;DHT22;1482;51.398;7.128;2023-12-04T16:05:40;2.90;75.10
2945;DHT22;1482;51.398;7.128;2023-12-04T16:08:07;2.80;79.40
2945;DHT22;1482;51.398;7.128;2023-12-04T16:10:34;2.80;95.80
2945;DHT22;1482;51.398;7.128;2023-12-04T16:13:01;2.80;99.40
2945;DHT22;1482;51.398;7.128;2023-12-04T16:15:27;2.80;98.90
2945;DHT22;1482;51.398;7.128;2023-12-04T16:17:52;2.70;99.90
2945;DHT22;1482;51.398;7.128;2023-12-04T16:20:18;2.60;99.90
2945;DHT22;1482;51.398;7.128;2023-12-04T16:22:43;2.50;99.90
2945;DHT22;1482;51.398;7.128;2023-12-04T16:25:09;2.50;99.90
2945;DHT22;1482;51.398;7.128;2023-12-04T16:27:35;2.50;99.90
2945;DHT22;1482;51.398;7.128;2023-12-04T16:30:01;2.40;99.90
2945;DHT22;1482;51.398;7.128;2023-12-04T16:32:27;2.40;99.90
2945;DHT22;1482;51.398;7.128;2023-12-04T16:34:52;2.30;99.90
2945;DHT22;1482;51.398;7.128;2023-12-04T16:37:18;2.30;99.90